sensor_id;sensor_type;location;lat;lon;timestamp;P1;durP1;ratioP1;P2;durP2;ratioP2
15966;SDS011;15175;48.154;11.534;2024-03-22T00:05:37;21.63;;;11.90;;
15966;SDS011;15175;48.154;11.534;2024-03-22T00:11:41;19.90;;;10.93;;
15966;SDS011;15175;48.154;11.534;2024-03-22T00:17:44;21.08;;;11.63;;
15966;SDS011;15175;48.154;11.534;2024-03-22T00:23:47;20.65;;;11.88;;
15966;SDS011;15175;48.154;11.534;2024-03-22T00:29:51;19.65;;;11.48;;
15966;SDS011;15175;48.154;11.534;2024-03-22T00:35:53;24.00;;;12.32;;
15966;SDS011;15175;48.154;11.534;2024-03-22T00:41:56;19.52;;;10.82;;
15966;SDS011;15175;48.154;11.534;2024-03-22T00:48:00;18.98;;;11.45;;
15966;SDS011;15175;48.154;11.534;2024-03-22T00:54:02;24.42;;;11.90;;
15966;SDS011;15175;48.154;11.534;2024-03-22T01:00:05;20.77;;;11.75;;
15966;SDS011;15175;48.154;11.534;2024-03-22T01:06:09;17.70;;;9.60;;
15966;SDS011;15175;48.154;11.534;2024-03-22T01:12:12;22.77;;;11.10;;
15966;SDS011;15175;48.154;11.534;2024-03-22T01:18:14;21.20;;;11.45;;
15966;SDS011;15175;48.154;11.534;2024-03-22T01:24:18;21.35;;;11.13;;
15966;SDS011;15175;48.154;11.534;2024-03-22T01:30:20;20.60;;;11.13;;
15966;SDS011;15175;48.154;11.534;2024-03-22T01:36:23;20.55;;;10.57;;
15966;SDS011;15175;48.154;11.534;2024-03-22T01:42:27;18.17;;;10.05;;
15966;SDS011;15175;48.154;11.534;2024-03-22T01:48:29;20.35;;;10.85;;
15966;SDS011;15175;48.154;11.534;2024-03-22T01:54:33;21.05;;;10.27;;
15966;SDS011;15175;48.154;11.534;2024-03-22T02:00:37;20.38;;;9.65;;
15966;SDS011;15175;48.154;11.534;2024-03-22T02:06:39;19.05;;;11.27;;
15966;SDS011;15175;48.154;11.534;2024-03-22T02:12:42;22.70;;;11.60;;
15966;SDS011;15175;48.154;11.534;2024-03-22T02:18:45;22.02;;;11.73;;
15966;SDS011;15175;48.154;11.534;2024-03-22T02:24:49;24.45;;;12.60;;
15966;SDS011;15175;48.154;11.534;2024-03-22T02:30:52;22.95;;;12.90;;
15966;SDS011;15175;48.154;11.534;2024-03-22T02:36:54;21.90;;;12.48;;
15966;SDS011;15175;48.154;11.534;2024-03-22T02:42:58;25.17;;;12.25;;
15966;SDS011;15175;48.154;11.534;2024-03-22T02:49:00;23.88;;;12.73;;
15966;SDS011;15175;48.154;11.534;2024-03-22T02:55:03;21.52;;;11.43;;
15966;SDS011;15175;48.154;11.534;2024-03-22T03:01:07;23.08;;;11.50;;
15966;SDS011;15175;48.154;11.534;2024-03-22T03:07:10;24.38;;;12.88;;
15966;SDS011;15175;48.154;11.534;2024-03-22T03:13:12;23.42;;;12.43;;
15966;SDS011;15175;48.154;11.534;2024-03-22T03:19:16;24.60;;;13.23;;
15966;SDS011;15175;48.154;11.534;2024-03-22T03:25:18;24.02;;;12.52;;
15966;SDS011;15175;48.154;11.534;2024-03-22T03:31:21;24.65;;;12.85;;
15966;SDS011;15175;48.154;11.534;2024-03-22T03:37:24;21.98;;;11.73;;
15966;SDS011;15175;48.154;11.534;2024-03-22T03:43:27;22.38;;;12.18;;
15966;SDS011;15175;48.154;11.534;2024-03-22T03:49:29;23.55;;;11.07;;
15966;SDS011;15175;48.154;11.534;2024-03-22T03:55:33;24.73;;;13.20;;
15966;SDS011;15175;48.154;11.534;2024-03-22T04:01:36;24.88;;;13.02;;
15966;SDS011;15175;48.154;11.534;2024-03-22T04:07:38;25.38;;;11.60;;
15966;SDS011;15175;48.154;11.534;2024-03-22T04:13:44;19.15;;;11.60;;
15966;SDS011;15175;48.154;11.534;2024-03-22T04:19:49;22.90;;;12.45;;
15966;SDS011;15175;48.154;11.534;2024-03-22T04:25:53;22.23;;;11.30;;
15966;SDS011;15175;48.154;11.534;2024-03-22T04:31:57;24.23;;;13.60;;
15966;SDS011;15175;48.154;11.534;2024-03-22T04:38:00;22.70;;;12.30;;
15966;SDS011;15175;48.154;11.534;2024-03-22T04:44:02;21.05;;;12.90;;
15966;SDS011;15175;48.154;11.534;2024-03-22T04:50:07;26.67;;;14.13;;
15966;SDS011;15175;48.154;11.534;2024-03-22T04:56:09;22.25;;;12.45;;
15966;SDS011;15175;48.154;11.534;2024-03-22T05:02:12;25.77;;;13.70;;
15966;SDS011;15175;48.154;11.534;2024-03-22T05:08:16;25.02;;;12.82;;
15966;SDS011;15175;48.154;11.534;2024-03-22T05:14:18;20.45;;;10.98;;
15966;SDS011;15175;48.154;11.534;2024-03-22T05:20:21;21.80;;;12.15;;
15966;SDS011;15175;48.154;11.534;2024-03-22T05:26:25;25.58;;;13.40;;
15966;SDS011;15175;48.154;11.534;2024-03-22T05:32:27;20.45;;;10.48;;
15966;SDS011;15175;48.154;11.534;2024-03-22T05:38:30;18.17;;;10.55;;
15966;SDS011;15175;48.154;11.534;2024-03-22T05:44:33;23.00;;;10.27;;
15966;SDS011;15175;48.154;11.534;2024-03-22T05:50:36;22.52;;;10.23;;
15966;SDS011;15175;48.154;11.534;2024-03-22T05:56:38;21.63;;;10.10;;
15966;SDS011;15175;48.154;11.534;2024-03-22T06:02:42;18.30;;;9.70;;
15966;SDS011;15175;48.154;11.534;2024-03-22T06:08:44;17.02;;;9.00;;
15966;SDS011;15175;48.154;11.534;2024-03-22T06:14:52;21.55;;;9.85;;
15966;SDS011;15175;48.154;11.534;2024-03-22T06:20:56;16.42;;;8.68;;
15966;SDS011;15175;48.154;11.534;2024-03-22T06:26:59;21.48;;;10.18;;
15966;SDS011;15175;48.154;11.534;2024-03-22T06:33:02;15.57;;;8.75;;
15966;SDS011;15175;48.154;11.534;2024-03-22T06:39:06;15.82;;;7.95;;
15966;SDS011;15175;48.154;11.534;2024-03-22T06:45:10;13.55;;;7.63;;
15966;SDS011;15175;48.154;11.534;2024-03-22T06:51:12;15.45;;;7.90;;
15966;SDS011;15175;48.154;11.534;2024-03-22T06:57:16;15.77;;;8.65;;
15966;SDS011;15175;48.154;11.534;2024-03-22T07:03:19;12.13;;;7.60;;
15966;SDS011;15175;48.154;11.534;2024-03-22T07:09:21;15.05;;;6.85;;
15966;SDS011;15175;48.154;11.534;2024-03-22T07:15:25;10.52;;;6.57;;
15966;SDS011;15175;48.154;11.534;2024-03-22T07:21:28;10.85;;;6.53;;
15966;SDS011;15175;48.154;11.534;2024-03-22T07:27:30;13.57;;;5.22;;
15966;SDS011;15175;48.154;11.534;2024-03-22T07:33:34;10.63;;;5.65;;
15966;SDS011;15175;48.154;11.534;2024-03-22T07:39:36;10.48;;;5.22;;
15966;SDS011;15175;48.154;11.534;2024-03-22T07:45:39;11.18;;;6.53;;
15966;SDS011;15175;48.154;11.534;2024-03-22T07:51:43;8.35;;;5.07;;
15966;SDS011;15175;48.154;11.534;2024-03-22T07:57:45;11.43;;;5.97;;
15966;SDS011;15175;48.154;11.534;2024-03-22T08:03:47;10.02;;;5.75;;
15966;SDS011;15175;48.154;11.534;2024-03-22T08:09:52;10.35;;;5.65;;
15966;SDS011;15175;48.154;11.534;2024-03-22T08:15:56;10.82;;;5.53;;
15966;SDS011;15175;48.154;11.534;2024-03-22T08:21:58;7.35;;;4.78;;
15966;SDS011;15175;48.154;11.534;2024-03-22T08:28:02;11.02;;;5.40;;
15966;SDS011;15175;48.154;11.534;2024-03-22T08:34:05;9.00;;;4.60;;
15966;SDS011;15175;48.154;11.534;2024-03-22T08:40:07;11.38;;;4.88;;
15966;SDS011;15175;48.154;11.534;2024-03-22T08:46:12;8.68;;;4.15;;
15966;SDS011;15175;48.154;11.534;2024-03-22T08:52:15;8.63;;;4.63;;
15966;SDS011;15175;48.154;11.534;2024-03-22T08:58:18;7.85;;;4.20;;
15966;SDS011;15175;48.154;11.534;2024-03-22T09:04:21;9.77;;;5.05;;
15966;SDS011;15175;48.154;11.534;2024-03-22T09:10:24;8.65;;;4.55;;
15966;SDS011;15175;48.154;11.534;2024-03-22T09:16:27;8.60;;;4.05;;
15966;SDS011;15175;48.154;11.534;2024-03-22T09:22:30;6.18;;;3.50;;
15966;SDS011;15175;48.154;11.534;2024-03-22T09:28:33;10.13;;;3.35;;
15966;SDS011;15175;48.154;11.534;2024-03-22T09:34:35;5.63;;;2.65;;
15966;SDS011;15175;48.154;11.534;2024-03-22T09:46:41;6.13;;;3.45;;
15966;SDS011;15175;48.154;11.534;2024-03-22T09:52:44;8.55;;;3.40;;
15966;SDS011;15175;48.154;11.534;2024-03-22T09:58:48;7.00;;;3.65;;
15966;SDS011;15175;48.154;11.534;2024-03-22T10:04:51;7.40;;;3.40;;
15966;SDS011;15175;48.154;11.534;2024-03-22T10:16:57;8.77;;;3.95;;
15966;SDS011;15175;48.154;11.534;2024-03-22T10:23:00;7.00;;;3.40;;
15966;SDS011;15175;48.154;11.534;2024-03-22T10:29:04;8.48;;;3.22;;
15966;SDS011;15175;48.154;11.534;2024-03-22T10:35:11;5.30;;;2.83;;
15966;SDS011;15175;48.154;11.534;2024-03-22T10:41:15;6.40;;;3.13;;
15966;SDS011;15175;48.154;11.534;2024-03-22T10:53:22;5.85;;;3.03;;
15966;SDS011;15175;48.154;11.534;2024-03-22T10:59:27;8.60;;;3.50;;
15966;SDS011;15175;48.154;11.534;2024-03-22T11:05:44;7.15;;;3.40;;
15966;SDS011;15175;48.154;11.534;2024-03-22T11:11:49;8.23;;;3.42;;
15966;SDS011;15175;48.154;11.534;2024-03-22T11:17:54;7.47;;;3.90;;
15966;SDS011;15175;48.154;11.534;2024-03-22T11:23:57;8.20;;;3.35;;
15966;SDS011;15175;48.154;11.534;2024-03-22T11:36:03;7.70;;;3.20;;
15966;SDS011;15175;48.154;11.534;2024-03-22T11:42:06;8.00;;;3.35;;
15966;SDS011;15175;48.154;11.534;2024-03-22T11:48:12;9.48;;;3.40;;
15966;SDS011;15175;48.154;11.534;2024-03-22T11:54:15;7.00;;;3.33;;
15966;SDS011;15175;48.154;11.534;2024-03-22T12:00:20;6.45;;;3.20;;
15966;SDS011;15175;48.154;11.534;2024-03-22T12:06:27;7.93;;;3.35;;
15966;SDS011;15175;48.154;11.534;2024-03-22T12:12:29;7.68;;;3.05;;
15966;SDS011;15175;48.154;11.534;2024-03-22T12:18:32;7.38;;;3.30;;
15966;SDS011;15175;48.154;11.534;2024-03-22T12:24:36;6.75;;;2.97;;
15966;SDS011;15175;48.154;11.534;2024-03-22T12:30:39;5.72;;;3.35;;
15966;SDS011;15175;48.154;11.534;2024-03-22T12:36:42;5.45;;;3.08;;
15966;SDS011;15175;48.154;11.534;2024-03-22T12:48:48;8.25;;;2.88;;
15966;SDS011;15175;48.154;11.534;2024-03-22T12:54:51;7.93;;;2.70;;
15966;SDS011;15175;48.154;11.534;2024-03-22T13:00:56;9.90;;;3.40;;
15966;SDS011;15175;48.154;11.534;2024-03-22T13:06:58;9.50;;;2.90;;
15966;SDS011;15175;48.154;11.534;2024-03-22T13:13:01;5.10;;;2.58;;
15966;SDS011;15175;48.154;11.534;2024-03-22T13:19:05;5.70;;;2.78;;
15966;SDS011;15175;48.154;11.534;2024-03-22T13:25:08;5.93;;;2.50;;
15966;SDS011;15175;48.154;11.534;2024-03-22T13:31:11;4.03;;;2.13;;
15966;SDS011;15175;48.154;11.534;2024-03-22T13:37:17;5.45;;;2.47;;
15966;SDS011;15175;48.154;11.534;2024-03-22T13:43:19;9.57;;;2.80;;
15966;SDS011;15175;48.154;11.534;2024-03-22T13:55:25;6.97;;;2.33;;
15966;SDS011;15175;48.154;11.534;2024-03-22T14:01:28;5.88;;;2.03;;
15966;SDS011;15175;48.154;11.534;2024-03-22T14:07:30;7.32;;;2.88;;
15966;SDS011;15175;48.154;11.534;2024-03-22T14:13:34;4.88;;;2.20;;
15966;SDS011;15175;48.154;11.534;2024-03-22T14:19:37;5.45;;;2.50;;
15966;SDS011;15175;48.154;11.534;2024-03-22T14:25:39;5.03;;;2.10;;
15966;SDS011;15175;48.154;11.534;2024-03-22T14:31:43;4.32;;;1.92;;
15966;SDS011;15175;48.154;11.534;2024-03-22T14:37:46;3.28;;;1.38;;
15966;SDS011;15175;48.154;11.534;2024-03-22T14:43:48;3.90;;;1.38;;
15966;SDS011;15175;48.154;11.534;2024-03-22T14:49:52;4.28;;;1.80;;
15966;SDS011;15175;48.154;11.534;2024-03-22T14:55:56;3.13;;;1.33;;
15966;SDS011;15175;48.154;11.534;2024-03-22T15:01:59;4.90;;;1.60;;
15966;SDS011;15175;48.154;11.534;2024-03-22T15:14:06;4.10;;;0.90;;
15966;SDS011;15175;48.154;11.534;2024-03-22T15:26:12;2.92;;;1.02;;
15966;SDS011;15175;48.154;11.534;2024-03-22T15:32:15;3.50;;;0.80;;
15966;SDS011;15175;48.154;11.534;2024-03-22T15:38:18;2.40;;;0.95;;
15966;SDS011;15175;48.154;11.534;2024-03-22T15:44:22;2.90;;;0.88;;
15966;SDS011;15175;48.154;11.534;2024-03-22T15:50:25;2.30;;;0.90;;
15966;SDS011;15175;48.154;11.534;2024-03-22T15:56:28;4.07;;;1.30;;
15966;SDS011;15175;48.154;11.534;2024-03-22T16:02:32;2.20;;;0.70;;
15966;SDS011;15175;48.154;11.534;2024-03-22T16:08:35;3.05;;;1.00;;
15966;SDS011;15175;48.154;11.534;2024-03-22T16:14:37;2.10;;;0.85;;
15966;SDS011;15175;48.154;11.534;2024-03-22T16:26:43;5.20;;;0.90;;
15966;SDS011;15175;48.154;11.534;2024-03-22T16:38:49;3.78;;;1.00;;
15966;SDS011;15175;48.154;11.534;2024-03-22T16:44:52;4.43;;;1.30;;
15966;SDS011;15175;48.154;11.534;2024-03-22T16:56:58;2.75;;;1.00;;
15966;SDS011;15175;48.154;11.534;2024-03-22T17:03:00;3.42;;;1.05;;
15966;SDS011;15175;48.154;11.534;2024-03-22T17:09:03;5.43;;;1.75;;
15966;SDS011;15175;48.154;11.534;2024-03-22T17:15:08;11.77;;;3.60;;
15966;SDS011;15175;48.154;11.534;2024-03-22T17:21:11;6.10;;;2.30;;
15966;SDS011;15175;48.154;11.534;2024-03-22T17:27:13;8.88;;;2.22;;
15966;SDS011;15175;48.154;11.534;2024-03-22T17:39:19;7.22;;;2.50;;
15966;SDS011;15175;48.154;11.534;2024-03-22T17:45:21;10.73;;;4.43;;
15966;SDS011;15175;48.154;11.534;2024-03-22T17:51:25;13.25;;;4.68;;
15966;SDS011;15175;48.154;11.534;2024-03-22T17:57:28;7.45;;;3.65;;
15966;SDS011;15175;48.154;11.534;2024-03-22T18:03:31;7.40;;;3.03;;
15966;SDS011;15175;48.154;11.534;2024-03-22T18:09:35;8.65;;;4.13;;
15966;SDS011;15175;48.154;11.534;2024-03-22T18:15:38;9.55;;;4.40;;
15966;SDS011;15175;48.154;11.534;2024-03-22T18:21:41;7.88;;;3.75;;
15966;SDS011;15175;48.154;11.534;2024-03-22T18:27:45;11.90;;;5.45;;
15966;SDS011;15175;48.154;11.534;2024-03-22T18:33:47;18.02;;;5.22;;
15966;SDS011;15175;48.154;11.534;2024-03-22T18:39:50;14.13;;;5.35;;
15966;SDS011;15175;48.154;11.534;2024-03-22T18:45:54;11.00;;;3.85;;
15966;SDS011;15175;48.154;11.534;2024-03-22T18:51:56;10.40;;;5.00;;
15966;SDS011;15175;48.154;11.534;2024-03-22T18:57:58;7.75;;;2.92;;
15966;SDS011;15175;48.154;11.534;2024-03-22T19:04:03;7.63;;;2.38;;
15966;SDS011;15175;48.154;11.534;2024-03-22T19:10:05;7.82;;;2.97;;
15966;SDS011;15175;48.154;11.534;2024-03-22T19:16:09;9.30;;;2.90;;
15966;SDS011;15175;48.154;11.534;2024-03-22T19:22:13;6.53;;;2.15;;
15966;SDS011;15175;48.154;11.534;2024-03-22T19:28:15;8.07;;;2.75;;
15966;SDS011;15175;48.154;11.534;2024-03-22T19:34:18;6.60;;;2.60;;
15966;SDS011;15175;48.154;11.534;2024-03-22T19:40:23;4.85;;;2.30;;
15966;SDS011;15175;48.154;11.534;2024-03-22T19:46:25;6.93;;;2.75;;
15966;SDS011;15175;48.154;11.534;2024-03-22T19:52:28;8.85;;;2.42;;
15966;SDS011;15175;48.154;11.534;2024-03-22T19:58:32;8.65;;;2.35;;
15966;SDS011;15175;48.154;11.534;2024-03-22T20:04:35;6.10;;;2.33;;
15966;SDS011;15175;48.154;11.534;2024-03-22T20:16:41;7.78;;;2.75;;
15966;SDS011;15175;48.154;11.534;2024-03-22T20:22:43;4.20;;;2.08;;
15966;SDS011;15175;48.154;11.534;2024-03-22T20:28:46;5.88;;;2.40;;
15966;SDS011;15175;48.154;11.534;2024-03-22T20:34:50;6.40;;;2.40;;
